Time;durP1;ratioP1;P1;durP2;ratioP2;P2;SDS_P1;SDS_P2;PMS_P1;PMS_P2;Temp;Humidity;BMP_temperature;BMP_pressure;BME280_temperature;BME280_humidity;BME280_pressure;Samples;Min_cycle;Max_cycle;Signal;HPM_P1;HPM_P2
2022/04/06 00:00:26;;;;;;;1.48;1.38;;;;;;;;;;5040711;28;20216;-57
2022/04/06 00:05:30;;;;;;;1.50;1.40;;;;;;;;;;5050514;22;20236;-57
2022/04/06 00:07:57;;;;;;;1.52;1.42;;;;;;;;;;5057699;28;20205;-56
2022/04/06 00:10:28;;;;;;;1.50;1.40;;;;;;;;;;5039787;28;20497;-56
2022/04/06 00:12:57;;;;;;;1.30;1.20;;;;;;;;;;5057003;28;20296;-57
2022/04/06 00:15:25;;;;;;;1.27;1.17;;;;;;;;;;5055535;28;20197;-57
2022/04/06 00:17:53;;;;;;;1.48;1.38;;;;;;;;;;5055947;28;20201;-57
2022/04/06 00:20:20;;;;;;;1.60;1.50;;;;;;;;;;5043865;28;20198;-56
2022/04/06 00:22:48;;;;;;;1.70;1.60;;;;;;;;;;5036703;28;20225;-57
2022/04/06 00:25:16;;;;;;;1.40;1.30;;;;;;;;;;5036240;28;20288;-57
2022/04/06 00:27:45;;;;;;;1.40;1.30;;;;;;;;;;5040685;28;20201;-57
2022/04/06 00:30:14;;;;;;;1.30;1.20;;;;;;;;;;5046876;28;20198;-56
2022/04/06 00:32:42;;;;;;;1.40;1.30;;;;;;;;;;5039558;28;20223;-56
2022/04/06 00:37:51;;;;;;;1.58;1.48;;;;;;;;;;5033362;28;20197;-57
2022/04/06 00:40:19;;;;;;;1.38;1.27;;;;;;;;;;5038682;28;20234;-57
2022/04/06 00:42:47;;;;;;;1.40;1.30;;;;;;;;;;5055671;28;20206;-57
2022/04/06 00:45:16;;;;;;;1.40;1.30;;;;;;;;;;5055115;28;20488;-57
2022/04/06 00:47:44;;;;;;;1.48;1.38;;;;;;;;;;5051284;28;20266;-57
2022/04/06 00:50:12;;;;;;;1.33;1.23;;;;;;;;;;5036553;28;20197;-57
2022/04/06 00:52:39;;;;;;;1.42;1.33;;;;;;;;;;5044628;28;20214;-57
2022/04/06 00:55:08;;;;;;;1.55;1.30;;;;;;;;;;5042083;28;20292;-57
2022/04/06 00:57:37;;;;;;;1.30;1.20;;;;;;;;;;5051351;28;20209;-57
2022/04/06 01:00:06;;;;;;;1.45;1.35;;;;;;;;;;5050436;28;20212;-57
2022/04/06 01:02:35;;;;;;;1.38;1.27;;;;;;;;;;5037482;28;20201;-56
2022/04/06 01:05:03;;;;;;;1.40;1.30;;;;;;;;;;5035971;28;20248;-57
2022/04/06 01:07:31;;;;;;;1.50;1.40;;;;;;;;;;5049029;28;20216;-57
2022/04/06 01:09:59;;;;;;;1.50;1.40;;;;;;;;;;5052112;28;20648;-57
2022/04/06 01:12:26;;;;;;;1.27;1.10;;;;;;;;;;5036167;28;20212;-57
2022/04/06 01:14:54;;;;;;;1.48;1.38;;;;;;;;;;5035847;28;20205;-57
2022/04/06 01:17:23;;;;;;;1.70;1.60;;;;;;;;;;5050929;28;20485;-57
2022/04/06 01:19:53;;;;;;;1.60;1.50;;;;;;;;;;5052965;28;20201;-57
2022/04/06 01:22:23;;;;;;;1.50;1.40;;;;;;;;;;5040429;28;20204;-57
2022/04/06 01:24:50;;;;;;;1.48;1.38;;;;;;;;;;5055028;28;20308;-57
2022/04/06 01:27:18;;;;;;;1.30;1.20;;;;;;;;;;5054073;28;20214;-57
2022/04/06 01:29:46;;;;;;;1.38;1.27;;;;;;;;;;5060152;28;20213;-57
2022/04/06 01:32:14;;;;;;;1.38;1.27;;;;;;;;;;5060047;28;20296;-57
2022/04/06 01:34:43;;;;;;;1.30;1.20;;;;;;;;;;5060211;28;20296;-57
2022/04/06 01:37:10;;;;;;;1.55;1.45;;;;;;;;;;5057166;28;20640;-57
2022/04/06 01:39:40;;;;;;;1.40;1.30;;;;;;;;;;5056159;28;20248;-56
2022/04/06 01:42:08;;;;;;;1.60;1.50;;;;;;;;;;5020196;28;20206;-56
2022/04/06 01:44:36;;;;;;;1.52;1.42;;;;;;;;;;5032605;28;20515;-57
2022/04/06 01:47:04;;;;;;;1.77;1.67;;;;;;;;;;5049233;28;20205;-57
2022/04/06 01:52:17;;;;;;;1.60;1.50;;;;;;;;;;5059368;28;20235;-57
2022/04/06 01:54:47;;;;;;;1.30;1.20;;;;;;;;;;5050510;28;20198;-57
2022/04/06 01:57:15;;;;;;;1.50;1.40;;;;;;;;;;5047965;28;20294;-57
2022/04/06 01:59:43;;;;;;;2.08;1.60;;;;;;;;;;5050357;28;20307;-57
2022/04/06 02:02:11;;;;;;;1.50;1.40;;;;;;;;;;5039097;28;20612;-56
2022/04/06 02:04:39;;;;;;;1.40;1.30;;;;;;;;;;5038891;28;20236;-56
2022/04/06 02:07:07;;;;;;;1.40;1.30;;;;;;;;;;5050991;28;20216;-57
2022/04/06 02:09:36;;;;;;;1.50;1.40;;;;;;;;;;5059426;28;20211;-57
2022/04/06 02:12:05;;;;;;;1.50;1.40;;;;;;;;;;5059210;28;20205;-57
2022/04/06 02:14:32;;;;;;;1.42;1.33;;;;;;;;;;5059163;28;20216;-57
2022/04/06 02:17:01;;;;;;;1.30;1.20;;;;;;;;;;5057743;28;20299;-57
2022/04/06 02:19:28;;;;;;;1.40;1.30;;;;;;;;;;5058998;28;20258;-57
2022/04/06 02:21:55;;;;;;;1.50;1.40;;;;;;;;;;5059195;28;20303;-57
2022/04/06 02:24:23;;;;;;;1.50;1.40;;;;;;;;;;5058957;28;20327;-57
2022/04/06 02:26:51;;;;;;;1.52;1.42;;;;;;;;;;5053487;28;20299;-57
2022/04/06 02:29:20;;;;;;;1.52;1.40;;;;;;;;;;5059065;28;20211;-56
2022/04/06 02:31:48;;;;;;;1.30;1.20;;;;;;;;;;5043571;28;20256;-57
2022/04/06 02:34:15;;;;;;;1.20;1.10;;;;;;;;;;5046455;28;20604;-56
2022/04/06 02:36:43;;;;;;;1.50;1.40;;;;;;;;;;5057583;28;20213;-57
2022/04/06 02:39:10;;;;;;;1.50;1.40;;;;;;;;;;5049102;28;20212;-57
2022/04/06 02:41:38;;;;;;;1.10;1.10;;;;;;;;;;5049843;28;20209;-57
2022/04/06 02:44:06;;;;;;;1.15;1.15;;;;;;;;;;5058234;28;20231;-56
2022/04/06 02:46:35;;;;;;;1.27;1.17;;;;;;;;;;5054165;28;20838;-57
2022/04/06 02:49:02;;;;;;;1.40;1.30;;;;;;;;;;5044925;28;20288;-57
2022/04/06 02:51:31;;;;;;;1.30;1.20;;;;;;;;;;5052165;28;20263;-57
2022/04/06 02:53:59;;;;;;;1.30;1.20;;;;;;;;;;5041681;28;20193;-57
2022/04/06 02:56:28;;;;;;;1.38;1.27;;;;;;;;;;5056424;28;20295;-57
2022/04/06 02:58:56;;;;;;;1.30;1.20;;;;;;;;;;5057944;28;20577;-57
2022/04/06 03:01:23;;;;;;;1.55;1.45;;;;;;;;;;5046243;28;20197;-57
2022/04/06 03:03:52;;;;;;;1.38;1.27;;;;;;;;;;5044464;28;20232;-56
2022/04/06 03:06:19;;;;;;;1.20;1.10;;;;;;;;;;5052779;28;20213;-56
2022/04/06 03:08:47;;;;;;;1.33;1.23;;;;;;;;;;5051243;28;20202;-57
2022/04/06 03:11:15;;;;;;;1.10;1.10;;;;;;;;;;5054047;28;20216;-56
2022/04/06 03:13:42;;;;;;;1.25;1.15;;;;;;;;;;5057809;28;20495;-56
2022/04/06 03:16:10;;;;;;;1.30;1.20;;;;;;;;;;5056178;28;20287;-57
2022/04/06 03:18:37;;;;;;;1.20;1.10;;;;;;;;;;5044771;28;20603;-56
2022/04/06 03:21:07;;;;;;;1.20;1.10;;;;;;;;;;5049336;28;20251;-57
2022/04/06 03:23:35;;;;;;;1.30;1.20;;;;;;;;;;5057773;28;20251;-57
2022/04/06 03:26:02;;;;;;;1.17;1.08;;;;;;;;;;5054836;28;20235;-56
2022/04/06 03:28:30;;;;;;;1.17;1.10;;;;;;;;;;5042474;28;20197;-57
2022/04/06 03:30:57;;;;;;;1.00;1.00;;;;;;;;;;5046154;28;20201;-57
2022/04/06 03:33:24;;;;;;;0.90;0.90;;;;;;;;;;5057702;28;20197;-56
2022/04/06 03:35:52;;;;;;;1.23;1.13;;;;;;;;;;5049636;28;20292;-56
2022/04/06 03:38:22;;;;;;;1.38;1.27;;;;;;;;;;5047942;28;20244;-56
2022/04/06 03:40:50;;;;;;;1.33;1.23;;;;;;;;;;5050161;28;20256;-57
2022/04/06 03:43:17;;;;;;;1.42;1.33;;;;;;;;;;5038387;28;20233;-57
2022/04/06 03:45:45;;;;;;;1.00;1.00;;;;;;;;;;5052493;28;20221;-56
2022/04/06 03:48:13;;;;;;;0.95;0.95;;;;;;;;;;5054973;28;20205;-56
2022/04/06 03:50:40;;;;;;;1.10;1.02;;;;;;;;;;5051197;28;20202;-57
2022/04/06 03:53:08;;;;;;;1.20;1.10;;;;;;;;;;5037853;28;20216;-56
2022/04/06 03:55:36;;;;;;;0.93;0.93;;;;;;;;;;5037547;28;20220;-56
2022/04/06 03:58:06;;;;;;;0.90;0.90;;;;;;;;;;5040231;28;20227;-57
2022/04/06 04:00:34;;;;;;;1.00;1.00;;;;;;;;;;5037305;28;20220;-56
2022/04/06 04:03:02;;;;;;;0.98;0.98;;;;;;;;;;5036956;28;20232;-56
2022/04/06 04:05:30;;;;;;;0.88;0.88;;;;;;;;;;5037078;28;20332;-56
2022/04/06 04:07:58;;;;;;;1.20;1.10;;;;;;;;;;5047027;28;20240;-56
2022/04/06 04:10:25;;;;;;;1.30;1.20;;;;;;;;;;5056802;28;20216;-56
2022/04/06 04:12:54;;;;;;;1.10;1.00;;;;;;;;;;5056723;28;20205;-56
2022/04/06 04:15:22;;;;;;;1.35;1.10;;;;;;;;;;5056922;28;20523;-57
2022/04/06 04:17:49;;;;;;;1.52;0.93;;;;;;;;;;5054264;28;20584;-56
2022/04/06 04:20:17;;;;;;;1.00;1.00;;;;;;;;;;5056392;28;20205;-56
2022/04/06 04:22:44;;;;;;;0.90;0.90;;;;;;;;;;5056739;28;20288;-56
2022/04/06 04:25:12;;;;;;;1.30;1.20;;;;;;;;;;5056953;28;20629;-56
2022/04/06 04:27:40;;;;;;;1.17;1.00;;;;;;;;;;5051927;28;20216;-56
2022/04/06 04:30:10;;;;;;;0.82;0.82;;;;;;;;;;5056118;28;20296;-57
2022/04/06 04:32:38;;;;;;;1.60;1.08;;;;;;;;;;5055986;28;20205;-56
2022/04/06 04:35:08;;;;;;;1.10;1.00;;;;;;;;;;5038075;28;20205;-56
2022/04/06 04:37:36;;;;;;;1.10;1.00;;;;;;;;;;5041361;28;20205;-56
2022/04/06 04:40:04;;;;;;;0.85;0.85;;;;;;;;;;5051971;28;20303;-56
2022/04/06 04:42:31;;;;;;;0.77;0.70;;;;;;;;;;5035189;28;20197;-58
2022/04/06 04:44:59;;;;;;;0.95;0.95;;;;;;;;;;5043337;28;20236;-57
2022/04/06 04:47:30;;;;;;;0.90;0.90;;;;;;;;;;5049104;28;20244;-56
2022/04/06 04:49:57;;;;;;;1.10;1.00;;;;;;;;;;5047539;28;20202;-56
2022/04/06 04:52:25;;;;;;;0.70;0.70;;;;;;;;;;5034781;28;20197;-56
2022/04/06 04:54:52;;;;;;;1.00;0.90;;;;;;;;;;5034688;28;20275;-56
2022/04/06 04:57:22;;;;;;;1.20;1.10;;;;;;;;;;5043227;28;20249;-56
2022/04/06 04:59:52;;;;;;;0.80;0.80;;;;;;;;;;5025795;28;20193;-56
2022/04/06 05:02:20;;;;;;;0.93;0.88;;;;;;;;;;5054580;28;20217;-56
2022/04/06 05:04:49;;;;;;;0.90;0.90;;;;;;;;;;5053341;28;20320;-57
2022/04/06 05:07:16;;;;;;;1.20;0.90;;;;;;;;;;5051593;28;20209;-56
2022/04/06 05:09:44;;;;;;;1.58;0.90;;;;;;;;;;5034472;28;20202;-57
2022/04/06 05:12:12;;;;;;;1.00;0.90;;;;;;;;;;5042090;28;20287;-57
2022/04/06 05:14:41;;;;;;;1.00;1.00;;;;;;;;;;5050884;28;20201;-56
2022/04/06 05:17:08;;;;;;;1.00;1.00;;;;;;;;;;5033416;28;20300;-56
2022/04/06 05:19:36;;;;;;;1.10;1.00;;;;;;;;;;5036498;28;20420;-56
2022/04/06 05:22:06;;;;;;;0.82;0.82;;;;;;;;;;5053917;28;20201;-56
2022/04/06 05:24:33;;;;;;;1.00;0.90;;;;;;;;;;5039597;28;20236;-56
2022/04/06 05:27:02;;;;;;;0.93;0.93;;;;;;;;;;5034184;28;20228;-56
2022/04/06 05:29:29;;;;;;;0.90;0.90;;;;;;;;;;5034629;28;20251;-56
2022/04/06 05:31:57;;;;;;;1.17;1.10;;;;;;;;;;5034002;28;20205;-56
2022/04/06 05:34:25;;;;;;;0.82;0.82;;;;;;;;;;5045134;28;20593;-56
2022/04/06 05:36:52;;;;;;;1.05;0.95;;;;;;;;;;5052983;28;20584;-56
2022/04/06 05:39:21;;;;;;;0.85;0.85;;;;;;;;;;5034312;28;20523;-56
2022/04/06 05:41:49;;;;;;;0.90;0.90;;;;;;;;;;5052502;28;20197;-56
2022/04/06 05:44:17;;;;;;;0.90;0.90;;;;;;;;;;5045300;28;20201;-56
2022/04/06 05:46:45;;;;;;;0.80;0.80;;;;;;;;;;5052509;28;20194;-56
2022/04/06 05:49:12;;;;;;;0.82;0.82;;;;;;;;;;5037183;28;20244;-56
2022/04/06 05:51:40;;;;;;;0.93;0.90;;;;;;;;;;5032945;28;20201;-56
2022/04/06 05:54:07;;;;;;;1.10;1.00;;;;;;;;;;5031893;28;20209;-56
2022/04/06 05:56:36;;;;;;;0.98;0.88;;;;;;;;;;5038042;28;20243;-56
2022/04/06 05:59:04;;;;;;;1.08;1.02;;;;;;;;;;5039935;28;20206;-56
2022/04/06 06:01:32;;;;;;;1.02;0.98;;;;;;;;;;5045357;28;20201;-57
2022/04/06 06:03:59;;;;;;;0.90;0.90;;;;;;;;;;5052872;28;20229;-57
2022/04/06 06:06:27;;;;;;;0.80;0.80;;;;;;;;;;5052872;28;20650;-57
2022/04/06 06:08:54;;;;;;;0.90;0.90;;;;;;;;;;5054681;28;20205;-57
2022/04/06 06:11:22;;;;;;;0.90;0.90;;;;;;;;;;5053599;28;20296;-57
2022/04/06 06:13:51;;;;;;;0.60;0.60;;;;;;;;;;5055986;28;20209;-56
2022/04/06 06:16:18;;;;;;;0.90;0.90;;;;;;;;;;5057175;28;20280;-56
2022/04/06 06:18:46;;;;;;;0.80;0.80;;;;;;;;;;5056280;28;20201;-56
2022/04/06 06:21:13;;;;;;;1.10;1.00;;;;;;;;;;5051753;28;20197;-56
2022/04/06 06:23:41;;;;;;;1.00;1.00;;;;;;;;;;5056202;28;20205;-57
2022/04/06 06:26:09;;;;;;;1.20;1.10;;;;;;;;;;5056302;28;20225;-57
2022/04/06 06:28:36;;;;;;;0.75;0.75;;;;;;;;;;5048531;28;20226;-57
2022/04/06 06:31:05;;;;;;;0.90;0.90;;;;;;;;;;5052026;28;20240;-56
2022/04/06 06:33:33;;;;;;;0.80;0.80;;;;;;;;;;5042725;28;20216;-56
2022/04/06 06:36:00;;;;;;;1.25;1.17;;;;;;;;;;5056209;28;20232;-56
2022/04/06 06:38:28;;;;;;;2.05;0.90;;;;;;;;;;5048312;28;20194;-56
2022/04/06 06:40:56;;;;;;;0.90;0.90;;;;;;;;;;5043909;28;20212;-56
2022/04/06 06:43:23;;;;;;;1.33;1.10;;;;;;;;;;5051755;28;20190;-56
2022/04/06 06:45:51;;;;;;;0.95;0.90;;;;;;;;;;5043925;28;20236;-56
2022/04/06 06:48:20;;;;;;;1.77;1.08;;;;;;;;;;5044469;28;20197;-56
2022/04/06 06:50:48;;;;;;;0.98;0.98;;;;;;;;;;5053177;28;20263;-56
2022/04/06 06:53:16;;;;;;;1.10;1.00;;;;;;;;;;5037016;28;20279;-56
2022/04/06 06:55:43;;;;;;;1.20;0.95;;;;;;;;;;5036305;28;20198;-56
2022/04/06 06:58:10;;;;;;;1.20;1.10;;;;;;;;;;5042199;28;20194;-56
2022/04/06 07:00:38;;;;;;;0.77;0.77;;;;;;;;;;5044523;28;20551;-56
2022/04/06 07:03:06;;;;;;;0.90;0.90;;;;;;;;;;5035668;28;20293;-56
2022/04/06 07:05:35;;;;;;;0.80;0.80;;;;;;;;;;5035243;28;20617;-56
2022/04/06 07:08:03;;;;;;;1.10;0.98;;;;;;;;;;5043038;28;20269;-56
2022/04/06 07:10:32;;;;;;;1.10;0.82;;;;;;;;;;5047242;28;20224;-56
2022/04/06 07:12:59;;;;;;;0.90;0.90;;;;;;;;;;5035166;28;20217;-56
2022/04/06 07:15:27;;;;;;;0.82;0.80;;;;;;;;;;5035396;28;20467;-56
2022/04/06 07:17:55;;;;;;;1.15;1.00;;;;;;;;;;5052176;28;20201;-56
2022/04/06 07:20:23;;;;;;;0.90;0.90;;;;;;;;;;5051573;28;20209;-60
2022/04/06 07:22:52;;;;;;;0.90;0.90;;;;;;;;;;5035915;28;20267;-57
2022/04/06 07:25:20;;;;;;;1.00;0.90;;;;;;;;;;5049492;28;20663;-56
2022/04/06 07:27:48;;;;;;;0.80;0.80;;;;;;;;;;5041126;28;20216;-56
2022/04/06 07:30:16;;;;;;;1.25;0.93;;;;;;;;;;5053426;28;20702;-56
2022/04/06 07:32:43;;;;;;;0.90;0.90;;;;;;;;;;5054741;28;20212;-56
2022/04/06 07:35:11;;;;;;;1.05;1.00;;;;;;;;;;5055145;28;20284;-56
2022/04/06 07:37:39;;;;;;;1.00;1.00;;;;;;;;;;5051169;28;20200;-56
2022/04/06 07:40:09;;;;;;;1.00;1.00;;;;;;;;;;5047609;28;20208;-56
2022/04/06 07:42:36;;;;;;;0.80;0.80;;;;;;;;;;5034503;28;20201;-56
2022/04/06 07:45:04;;;;;;;1.10;1.00;;;;;;;;;;5049243;28;20654;-56
2022/04/06 07:47:32;;;;;;;1.00;1.00;;;;;;;;;;5036579;28;20543;-56
2022/04/06 07:50:00;;;;;;;0.98;0.93;;;;;;;;;;5054512;28;20196;-56
2022/04/06 07:52:28;;;;;;;1.10;1.00;;;;;;;;;;5040675;28;20218;-56
2022/04/06 07:54:56;;;;;;;1.75;1.08;;;;;;;;;;5038060;28;20213;-56
2022/04/06 07:57:25;;;;;;;0.93;0.93;;;;;;;;;;5034734;28;20205;-56
2022/04/06 07:59:53;;;;;;;1.27;1.00;;;;;;;;;;5047697;28;20280;-56
2022/04/06 08:02:20;;;;;;;0.90;0.90;;;;;;;;;;5035145;28;20206;-57
2022/04/06 08:04:48;;;;;;;1.00;1.00;;;;;;;;;;5035337;28;20507;-56
2022/04/06 08:07:17;;;;;;;1.05;0.93;;;;;;;;;;5035204;28;20225;-56
2022/04/06 08:09:44;;;;;;;0.93;0.90;;;;;;;;;;5035654;28;20297;-56
2022/04/06 08:12:12;;;;;;;4.18;2.78;;;;;;;;;;5038814;28;20299;-57
2022/04/06 08:14:41;;;;;;;4.03;3.40;;;;;;;;;;5055237;28;20814;-57
2022/04/06 08:17:09;;;;;;;4.18;2.67;;;;;;;;;;5054681;28;20201;-56
2022/04/06 08:19:36;;;;;;;3.33;2.88;;;;;;;;;;5054085;28;20197;-57
2022/04/06 08:22:04;;;;;;;3.80;2.67;;;;;;;;;;5051611;28;20696;-56
2022/04/06 08:24:32;;;;;;;3.83;2.60;;;;;;;;;;5053214;28;20475;-57
2022/04/06 08:26:59;;;;;;;6.20;3.90;;;;;;;;;;5054679;28;20232;-57
2022/04/06 08:29:26;;;;;;;5.18;4.40;;;;;;;;;;5043280;28;20204;-56
2022/04/06 08:31:55;;;;;;;4.53;3.75;;;;;;;;;;5048842;28;20213;-57
2022/04/06 08:34:23;;;;;;;3.92;3.33;;;;;;;;;;5038773;28;20572;-56
2022/04/06 08:36:50;;;;;;;5.05;4.28;;;;;;;;;;5054663;28;20201;-56
2022/04/06 08:39:18;;;;;;;4.88;3.70;;;;;;;;;;5042249;28;20212;-58
2022/04/06 08:41:45;;;;;;;5.15;3.95;;;;;;;;;;5048008;28;20630;-56
2022/04/06 08:44:12;;;;;;;5.18;4.40;;;;;;;;;;5053833;28;20193;-57
2022/04/06 08:46:42;;;;;;;8.32;7.50;;;;;;;;;;5054106;28;20567;-57
2022/04/06 08:49:12;;;;;;;7.63;6.35;;;;;;;;;;5042607;28;20202;-56
2022/04/06 08:51:40;;;;;;;5.80;5.20;;;;;;;;;;5049939;28;20267;-56
2022/04/06 08:54:08;;;;;;;6.28;5.13;;;;;;;;;;5044536;28;20201;-56
2022/04/06 08:56:35;;;;;;;5.88;5.22;;;;;;;;;;5035220;28;20471;-56
2022/04/06 08:59:04;;;;;;;6.85;5.20;;;;;;;;;;5041909;28;20201;-57
2022/04/06 09:01:33;;;;;;;5.90;5.25;;;;;;;;;;5051330;28;20585;-57
2022/04/06 09:04:00;;;;;;;5.80;5.10;;;;;;;;;;5048807;28;20236;-56
2022/04/06 09:06:32;;;;;;;5.30;4.80;;;;;;;;;;5034094;28;20221;-57
2022/04/06 09:09:00;;;;;;;6.43;4.80;;;;;;;;;;5041003;28;20200;-57
2022/04/06 09:11:29;;;;;;;4.75;4.32;;;;;;;;;;5051533;28;20282;-56
2022/04/06 09:13:59;;;;;;;5.90;4.47;;;;;;;;;;5051466;28;20217;-57
2022/04/06 09:16:28;;;;;;;5.40;4.20;;;;;;;;;;5038352;28;20200;-57
2022/04/06 09:18:56;;;;;;;5.80;3.97;;;;;;;;;;5045942;28;20262;-57
2022/04/06 09:21:24;;;;;;;4.40;3.90;;;;;;;;;;5053341;28;20197;-57
2022/04/06 09:23:52;;;;;;;5.05;4.38;;;;;;;;;;5053862;28;20201;-56
2022/04/06 09:26:21;;;;;;;4.55;3.97;;;;;;;;;;5052764;28;20216;-57
2022/04/06 09:28:49;;;;;;;6.68;4.00;;;;;;;;;;5045495;28;20264;-56
2022/04/06 09:31:17;;;;;;;4.10;3.33;;;;;;;;;;5013603;28;20199;-57
2022/04/06 09:33:56;;;;;;;5.28;3.95;;;;;;;;;;5014112;28;20209;-57
2022/04/06 09:36:24;;;;;;;3.53;3.22;;;;;;;;;;5031139;28;20486;-56
2022/04/06 09:38:53;;;;;;;4.30;3.63;;;;;;;;;;5034473;28;20206;-56
2022/04/06 09:41:21;;;;;;;4.10;3.55;;;;;;;;;;5034383;28;20621;-57
2022/04/06 09:43:50;;;;;;;6.65;2.95;;;;;;;;;;5055051;28;20201;-56
2022/04/06 09:49:05;;;;;;;4.97;3.40;;;;;;;;;;5033386;28;20196;-56
2022/04/06 09:51:33;;;;;;;3.50;3.20;;;;;;;;;;5055866;28;20209;-56
2022/04/06 09:54:04;;;;;;;3.88;2.92;;;;;;;;;;5046263;28;20813;-56
2022/04/06 09:56:32;;;;;;;3.92;2.88;;;;;;;;;;5036405;28;20197;-56
2022/04/06 09:59:01;;;;;;;3.35;3.05;;;;;;;;;;5046525;28;20209;-57
2022/04/06 10:01:32;;;;;;;3.83;3.00;;;;;;;;;;5057579;28;20245;-56
2022/04/06 10:04:03;;;;;;;3.88;3.20;;;;;;;;;;5056616;28;20233;-57
2022/04/06 10:06:32;;;;;;;3.20;2.90;;;;;;;;;;5056333;28;20619;-56
2022/04/06 10:09:00;;;;;;;3.53;2.60;;;;;;;;;;5043135;28;20202;-56
2022/04/06 10:11:29;;;;;;;2.85;2.65;;;;;;;;;;5055981;28;20205;-56
2022/04/06 10:13:58;;;;;;;3.53;3.17;;;;;;;;;;5055398;28;20212;-56
2022/04/06 10:16:26;;;;;;;2.83;2.53;;;;;;;;;;5048887;28;20230;-57
2022/04/06 10:18:54;;;;;;;2.47;2.28;;;;;;;;;;5048631;28;20207;-56
2022/04/06 10:21:24;;;;;;;2.70;2.50;;;;;;;;;;5037903;28;20201;-56
2022/04/06 10:23:55;;;;;;;3.58;2.70;;;;;;;;;;5036339;28;20205;-56
2022/04/06 10:26:34;;;;;;;2.72;2.53;;;;;;;;;;5032252;28;20218;-56
2022/04/06 10:29:01;;;;;;;2.80;2.60;;;;;;;;;;5036610;28;20319;-56
2022/04/06 10:31:29;;;;;;;2.92;2.60;;;;;;;;;;5053279;28;20205;-56
2022/04/06 10:34:13;;;;;;;2.50;2.25;;;;;;;;;;5048311;28;20299;-56
2022/04/06 10:36:41;;;;;;;2.20;2.00;;;;;;;;;;5028727;28;20297;-57
2022/04/06 10:39:12;;;;;;;2.63;2.42;;;;;;;;;;5032682;28;20197;-56
2022/04/06 10:42:01;;;;;;;2.38;2.10;;;;;;;;;;5052300;28;20219;-56
2022/04/06 10:44:38;;;;;;;2.40;2.20;;;;;;;;;;5052075;28;20193;-56
2022/04/06 10:47:07;;;;;;;2.40;2.20;;;;;;;;;;5050570;28;20236;-56
2022/04/06 10:49:35;;;;;;;2.60;2.28;;;;;;;;;;5050837;28;20634;-56
2022/04/06 10:52:17;;;;;;;2.28;2.08;;;;;;;;;;5053782;28;20595;-56
2022/04/06 10:54:44;;;;;;;2.22;2.03;;;;;;;;;;5050923;28;20209;-56
2022/04/06 10:57:13;;;;;;;2.80;1.90;;;;;;;;;;5053821;28;20201;-56
2022/04/06 10:59:41;;;;;;;2.50;2.22;;;;;;;;;;5046072;28;20201;-57
2022/04/06 11:02:19;;;;;;;2.10;1.90;;;;;;;;;;5033229;28;20259;-56
2022/04/06 11:04:47;;;;;;;2.05;1.88;;;;;;;;;;5022674;28;20237;-57
2022/04/06 11:10:06;;;;;;;2.15;1.95;;;;;;;;;;5045313;28;20225;-56
2022/04/06 11:10:12;;;;;;;2.00;1.90;;;;;;;;;;5042706;28;20201;-56
2022/04/06 11:12:57;;;;;;;1.90;1.80;;;;;;;;;;5038098;28;20201;-56
2022/04/06 11:15:34;;;;;;;2.53;1.73;;;;;;;;;;5038018;28;20209;-56
2022/04/06 11:18:01;;;;;;;2.08;1.75;;;;;;;;;;5033388;28;20613;-56
2022/04/06 11:20:32;;;;;;;1.80;1.70;;;;;;;;;;5041994;28;20201;-56
2022/04/06 11:23:00;;;;;;;2.00;1.90;;;;;;;;;;5049356;28;20580;-56
2022/04/06 11:25:28;;;;;;;2.03;1.83;;;;;;;;;;5051748;28;20204;-56
2022/04/06 11:28:06;;;;;;;2.20;2.00;;;;;;;;;;5050992;28;20225;-58
2022/04/06 11:30:34;;;;;;;2.58;2.05;;;;;;;;;;5038911;28;20193;-56
2022/04/06 11:33:02;;;;;;;2.28;2.08;;;;;;;;;;5032259;28;20217;-56
2022/04/06 11:35:31;;;;;;;1.98;1.88;;;;;;;;;;5033587;28;20197;-56
2022/04/06 11:37:59;;;;;;;1.98;1.88;;;;;;;;;;5045766;28;20197;-56
2022/04/06 11:40:27;;;;;;;2.72;1.88;;;;;;;;;;5047472;28;20189;-56
2022/04/06 11:42:55;;;;;;;2.03;1.83;;;;;;;;;;5053522;28;20493;-56
2022/04/06 11:45:25;;;;;;;1.77;1.67;;;;;;;;;;5052493;28;20197;-56
2022/04/06 11:47:54;;;;;;;2.00;1.80;;;;;;;;;;5046718;28;20228;-57
2022/04/06 11:50:22;;;;;;;1.98;1.88;;;;;;;;;;5036929;28;20255;-56
2022/04/06 11:52:49;;;;;;;1.92;1.80;;;;;;;;;;5031893;28;20201;-56
2022/04/06 11:55:17;;;;;;;1.98;1.70;;;;;;;;;;5031117;28;20202;-57
2022/04/06 11:57:45;;;;;;;2.40;1.88;;;;;;;;;;5038440;28;20201;-57
2022/04/06 12:00:15;;;;;;;1.92;1.80;;;;;;;;;;5050944;28;20201;-57
2022/04/06 12:02:51;;;;;;;1.70;1.60;;;;;;;;;;5051665;28;20205;-57
2022/04/06 12:05:19;;;;;;;1.83;1.73;;;;;;;;;;5052733;28;20515;-57
2022/04/06 12:07:46;;;;;;;2.00;1.80;;;;;;;;;;5051184;28;20239;-56
2022/04/06 12:10:14;;;;;;;1.90;1.80;;;;;;;;;;5049231;28;20209;-56
2022/04/06 12:12:42;;;;;;;1.90;1.75;;;;;;;;;;5051489;28;20201;-56
2022/04/06 12:15:11;;;;;;;1.73;1.63;;;;;;;;;;5051859;28;20213;-57
2022/04/06 12:17:40;;;;;;;1.75;1.65;;;;;;;;;;5052077;28;20461;-57
2022/04/06 12:20:25;;;;;;;1.63;1.52;;;;;;;;;;5047591;28;20259;-56
2022/04/06 12:23:05;;;;;;;1.88;1.63;;;;;;;;;;5051348;28;20385;-56
2022/04/06 12:25:33;;;;;;;1.77;1.67;;;;;;;;;;5052029;28;20212;-57
2022/04/06 12:28:11;;;;;;;2.15;1.95;;;;;;;;;;5044283;28;20605;-56
2022/04/06 12:30:50;;;;;;;1.90;1.77;;;;;;;;;;5044867;28;20271;-56
2022/04/06 12:33:33;;;;;;;1.90;1.80;;;;;;;;;;5050023;28;20215;-56
2022/04/06 12:36:15;;;;;;;1.70;1.60;;;;;;;;;;5030829;28;20213;-56
2022/04/06 12:38:43;;;;;;;1.70;1.60;;;;;;;;;;5038418;28;20197;-56
2022/04/06 12:41:12;;;;;;;1.90;1.80;;;;;;;;;;5046108;28;20196;-56
2022/04/06 12:43:46;;;;;;;1.73;1.63;;;;;;;;;;5050562;28;20646;-56
2022/04/06 12:46:14;;;;;;;1.70;1.60;;;;;;;;;;5011326;28;20586;-57
2022/04/06 12:48:41;;;;;;;1.63;1.52;;;;;;;;;;5034636;28;20604;-57
2022/04/06 12:51:24;;;;;;;1.75;1.65;;;;;;;;;;5036489;28;20217;-57
2022/04/06 12:53:52;;;;;;;1.92;1.50;;;;;;;;;;5033259;28;20210;-56
2022/04/06 12:56:23;;;;;;;1.60;1.50;;;;;;;;;;5032246;28;20448;-57
2022/04/06 12:59:09;;;;;;;2.08;1.90;;;;;;;;;;5041114;28;20212;-57
2022/04/06 13:01:45;;;;;;;1.80;1.70;;;;;;;;;;5049802;28;20588;-56
2022/04/06 13:04:12;;;;;;;1.67;1.58;;;;;;;;;;5045370;28;20298;-56
2022/04/06 13:06:41;;;;;;;1.83;1.73;;;;;;;;;;5031271;28;20210;-56
2022/04/06 13:09:13;;;;;;;1.48;1.38;;;;;;;;;;5042873;28;20227;-57
2022/04/06 13:11:41;;;;;;;1.77;1.67;;;;;;;;;;5030810;28;20210;-56
2022/04/06 13:14:08;;;;;;;1.80;1.70;;;;;;;;;;5033870;28;20201;-56
2022/04/06 13:16:36;;;;;;;2.08;1.80;;;;;;;;;;5032798;28;20202;-56
2022/04/06 13:19:04;;;;;;;1.73;1.63;;;;;;;;;;5043301;28;20360;-56
2022/04/06 13:21:33;;;;;;;1.73;1.63;;;;;;;;;;5054242;28;20205;-56
2022/04/06 13:24:06;;;;;;;1.70;1.60;;;;;;;;;;5050815;28;20198;-58
2022/04/06 13:26:34;;;;;;;1.50;1.40;;;;;;;;;;5035696;28;20217;-56
2022/04/06 13:29:01;;;;;;;1.60;1.50;;;;;;;;;;5053319;28;20229;-56
2022/04/06 13:31:28;;;;;;;1.60;1.50;;;;;;;;;;5046277;28;20479;-56
2022/04/06 13:33:56;;;;;;;1.58;1.48;;;;;;;;;;5032587;28;20213;-56
2022/04/06 13:36:24;;;;;;;1.55;1.45;;;;;;;;;;5035851;28;20482;-56
2022/04/06 13:38:52;;;;;;;1.60;1.50;;;;;;;;;;5049522;28;20219;-56
2022/04/06 13:41:21;;;;;;;1.70;1.60;;;;;;;;;;5046272;28;20239;-56
2022/04/06 13:43:48;;;;;;;1.60;1.50;;;;;;;;;;5052717;28;20197;-56
2022/04/06 13:46:16;;;;;;;1.60;1.50;;;;;;;;;;5045212;28;20604;-56
2022/04/06 13:48:43;;;;;;;1.48;1.38;;;;;;;;;;5052497;28;20484;-56
2022/04/06 13:51:11;;;;;;;1.50;1.40;;;;;;;;;;5037469;28;20212;-56
2022/04/06 13:53:38;;;;;;;1.63;1.52;;;;;;;;;;5035972;28;20194;-56
2022/04/06 13:56:06;;;;;;;1.67;1.58;;;;;;;;;;5033283;28;20201;-56
2022/04/06 13:58:35;;;;;;;1.80;1.50;;;;;;;;;;5043494;28;20192;-56
2022/04/06 14:01:02;;;;;;;1.52;1.42;;;;;;;;;;5039605;28;20698;-56
2022/04/06 14:03:30;;;;;;;1.80;1.50;;;;;;;;;;5051502;28;20240;-56
2022/04/06 14:05:57;;;;;;;1.67;1.58;;;;;;;;;;5051120;28;20204;-56
2022/04/06 14:08:25;;;;;;;1.52;1.40;;;;;;;;;;5044580;28;20224;-56
2022/04/06 14:10:53;;;;;;;2.25;1.48;;;;;;;;;;5036524;28;20213;-56
2022/04/06 14:13:21;;;;;;;1.50;1.40;;;;;;;;;;5034301;28;20216;-56
2022/04/06 14:15:50;;;;;;;2.00;1.40;;;;;;;;;;5034511;28;20252;-56
2022/04/06 14:18:19;;;;;;;2.75;1.70;;;;;;;;;;5034235;28;20212;-56
2022/04/06 14:20:47;;;;;;;1.40;1.30;;;;;;;;;;5035408;28;20481;-56
2022/04/06 14:23:14;;;;;;;1.42;1.33;;;;;;;;;;5037246;28;20557;-56
2022/04/06 14:25:43;;;;;;;1.90;1.55;;;;;;;;;;5054475;28;20569;-56
2022/04/06 14:28:10;;;;;;;1.50;1.40;;;;;;;;;;5052608;28;20225;-56
2022/04/06 14:30:38;;;;;;;1.50;1.38;;;;;;;;;;5054239;28;20201;-56
2022/04/06 14:33:07;;;;;;;1.80;1.70;;;;;;;;;;5054244;28;20209;-56
2022/04/06 14:35:34;;;;;;;1.65;1.50;;;;;;;;;;5053099;28;20197;-57
2022/04/06 14:38:02;;;;;;;1.70;1.20;;;;;;;;;;5052531;28;20211;-56
2022/04/06 14:40:29;;;;;;;1.60;1.50;;;;;;;;;;5050531;28;20198;-56
2022/04/06 14:42:57;;;;;;;1.27;1.15;;;;;;;;;;5054923;28;20583;-56
2022/04/06 14:45:27;;;;;;;1.80;1.48;;;;;;;;;;5043489;28;20509;-56
2022/04/06 14:47:59;;;;;;;1.77;1.65;;;;;;;;;;5034615;28;20235;-56
2022/04/06 14:50:28;;;;;;;1.30;1.20;;;;;;;;;;5035031;28;20569;-56
2022/04/06 14:52:55;;;;;;;1.33;1.23;;;;;;;;;;5037351;28;20197;-56
2022/04/06 14:55:23;;;;;;;1.63;1.52;;;;;;;;;;5048941;28;20224;-56
2022/04/06 14:57:51;;;;;;;1.20;1.10;;;;;;;;;;5054896;28;20208;-56
2022/04/06 15:00:20;;;;;;;1.40;1.30;;;;;;;;;;5052853;28;20219;-56
2022/04/06 15:02:47;;;;;;;1.30;1.20;;;;;;;;;;5038028;28;20682;-56